Brandon Pulisic

Scout - Vancouver Whitecaps
19 Nov 2028
Sonntag
Verarbeitung

Persönlichkeit

Anpassungsfähigkeit (3) Ehrgeiz (12) Kontroverse (17) Loyalität (12) Druck (8) Professionalität (3) Fairness (9) Temperament (8)

Profil

Trainerstil Demokratisch
Lizenz Nationale A
Entschlossenheit 10
Menschenführung 7
Motivation 11
Disziplin 7
Arbeitszufriedenheit
100%
Ermüdung
0%
Rolle Scout
Gehalt 48.2K p/W
Vertrag 14.03.2030

Leistung

Verhalten Gut
Trainingseffektivität
30%
Spielerentwicklung
40%
Verletzungsprävention
50%
Taktische Umsetzung
25%

Letzte Ereignisse

Nahm an einer Scouting-Besprechung teil jetzt
Empfahl ein Transferziel jetzt
Empfahl ein Transferziel jetzt
Empfahl ein Transferziel jetzt
Empfahl ein Transferziel jetzt
Spieler begutachtet jetzt
Spieler begutachtet jetzt
Spieler begutachtet 7T her

Aktuell beobachtet

145
Spieler Verein Status Fähigkeit Vertrauen Beobachtet Zuletzt beobachtet Letzte Stimme
Onyeuche Ujunwa Ikorodu City Aktiv 87 / 95 40% 10 18.11.2028 -
Luka Vušković Tottenham Aktiv 148 / 164 40% 8 18.11.2028 -
Estanislao López Colón Aktiv 93 / 102 40% 1 18.11.2028 -
Veljko Milosavljević Bournemouth Aktiv 147 / 148 40% 7 17.11.2028 -
Mateo Faure BATE Aktiv 90 / 99 40% 5 17.11.2028 -
Davinchi Getafe Aktiv 129 / 137 40% 2 17.11.2028 -
Gideon Manaseh Ikorodu City Aktiv 94 / 97 40% 9 16.11.2028 -
Aytor Herrera Mineros de Guayana Aktiv 87 / 90 40% 3 16.11.2028 -
Francisco Machis Llaneros Aktiv 84 / 89 40% 9 15.11.2028 -
Salvador Blopá Wolverhampton Aktiv 125 / 127 40% 1 15.11.2028 -
Giovanni Leoni Lincoln City Aktiv 147 / 144 40% 14 12.11.2028 -
Riquelme Thompson-Jones Accrington Stanley Aktiv 115 / 116 40% 6 12.11.2028 -
Ronan Kpakio AC Milan Aktiv 125 / 133 40% 4 11.11.2028 -
Tyler Fletcher Rotherham United Aktiv 116 / 124 40% 9 11.11.2028 -
Tiago Gordillo San Miguel Aktiv 89 / 92 40% 9 10.11.2028 -
Christos Mouzakitis Hull City Aktiv 141 / 154 40% 11 10.11.2028 -
Luis Otávio Orlando City Aktiv 113 / 119 40% 4 10.11.2028 -
Sebastian Rodriguez Houston Dynamo Aktiv 119 / 131 40% 3 09.11.2028 -
Celías Ingenthron Platense Aktiv 114 / 121 40% 5 08.11.2028 -
Diego León Rotherham United Aktiv 128 / 134 40% 7 07.11.2028 -
Harry Amass Manchester United Aktiv 148 / 148 40% 5 06.11.2028 -
Harrison Armstrong Ipswich Town Aktiv 140 / 145 40% 6 06.11.2028 -
Ayyoub Bouaddi Stoke City Aktiv 149 / 151 40% 6 05.11.2028 -
Alejandro Tapia Central Norte Aktiv 88 / 91 40% 3 05.11.2028 -
Nazif Abdullahi Nasarawa United Aktiv 80 / 86 40% 1 03.11.2028 -
Trey Nyoni Rotherham United Aktiv 145 / 150 40% 6 02.11.2028 -
Johan Solstad-Nøis Tromso Aktiv 101 / 97 40% 1 01.11.2028 -
Felipe Varela Trujillanos Aktiv 90 / 93 40% 6 31.10.2028 -
Chris Rigg West Ham United Aktiv 138 / 146 40% 6 29.10.2028 -
Ivan Borges Defensores Aktiv 85 / 90 40% 2 28.10.2028 -
Jan Cedilnik Chikhura Aktiv 89 / 93 40% 3 27.10.2028 -
Honest Ahanor Atalanta Aktiv 142 / 145 40% 9 25.10.2028 -
Óscar Hinojosa Metropolitanos Aktiv 87 / 86 40% 7 22.10.2028 -
Máximo Munarriz San Telmo Aktiv 97 / 114 40% 4 22.10.2028 -
Peyton Miller New England Revolution Aktiv 111 / 119 40% 3 21.10.2028 -
Louis Page Leicester City Aktiv 131 / 143 40% 3 21.10.2028 -
Jim Thwaites Manchester United Aktiv 121 / 125 40% 1 18.10.2028 -
Aidan Borland Espanyol Aktiv 114 / 126 40% 1 15.10.2028 -
George Beaumont Millwall Aktiv 102 / 109 40% 1 14.10.2028 -
Matías Magdaleno Estudiantes Aktiv 113 / 111 40% 1 13.10.2028 -
Tobías Ramírez River Plate Aktiv 127 / 130 40% 4 12.10.2028 -
Iestyn Jones Swansea City Aktiv 98 / 101 40% 1 12.10.2028 -
Joel Ezra Enyimba Aktiv 97 / 101 40% 10 11.10.2028 -
Somtochuwku Ezenabo Kwara United Aktiv 93 / 102 40% 1 10.10.2028 -
Lautaro Dufur Juventud Aktiv 102 / 109 40% 5 04.10.2028 -
Benito Paklayan Alvarado Aktiv 89 / 99 40% 1 04.10.2028 -
Tyson Pearce St. Louis CITY SC Aktiv 97 / 96 40% 1 02.10.2028 -
Ezra Mayers West Ham United Aktiv 131 / 139 40% 3 26.09.2028 -
Aaron Branca Artigas Aktiv 83 / 91 40% 1 11.09.2028 -
Hosea Michael Remo Stars Aktiv 89 / 95 40% 6 09.09.2028 -
Ayden Heaven Portsmouth Aktiv 150 / 160 40% 7 03.09.2028 -
Lucas Camejo River Plate Aktiv 82 / 86 40% 4 30.08.2028 -
Goforth Amedu Warri Wolves Aktiv 80 / 84 40% 1 26.08.2028 -
Kwesi Sorotu Badori Berekum Chelsea Aktiv 101 / 110 40% 1 25.08.2028 -
Abubakar Adams Aduana Stars Aktiv 87 / 94 40% 3 18.08.2028 -
Nicolò Moranduzzo Renate Aktiv 101 / 96 40% 2 09.08.2028 -
Lamine Bèye Portimonense Aktiv 118 / 116 40% 1 09.08.2028 -
Daniel Banjaqui Benfica Aktiv 128 / 126 40% 3 31.07.2028 -
Thijs Kraaijeveld USM Alger Aktiv 119 / 130 40% 2 31.07.2028 -
Brayan Manrique FC Cincinnati Aktiv 92 / 92 79% 1 24.07.2028 Befürworten
Josh Nichols Oldham Athletic Aktiv 120 / 128 40% 10 07.07.2028 -
Khama Mabunda Platinum Stars Aktiv 82 / 92 40% 3 07.07.2028 -
Daniel Idoko Ikorodu City Aktiv 90 / 97 40% 5 05.07.2028 -
Kamaldeen Atiemo Wa All Stars Aktiv 104 / 109 40% 3 05.07.2028 -
Ahmed Zaki Masr El Makasa Aktiv 77 / 88 40% 2 05.07.2028 -
Bernardo Lima Porto Aktiv 112 / 118 40% 3 04.07.2028 -
Tobiáš Pališčák Zlin Aktiv 104 / 106 40% 1 03.07.2028 -
Kiani Inge Groningen Aktiv 118 / 117 40% 1 30.05.2028 -
Jorthy Mokio ADO Den Haag Aktiv 135 / 132 40% 4 23.05.2028 -
Jenson Jones Walsall Aktiv 102 / 105 40% 1 21.05.2028 -
Andrea Cogoni Cosenza Aktiv 105 / 119 40% 1 16.05.2028 -
Musa Danjuma Umraniyespor Aktiv 91 / 96 40% 1 14.05.2028 -
Jan Bürger Northampton Town Aktiv 117 / 127 40% 1 13.05.2028 -
Andrey Ivlev Nizhniy Novgorod Aktiv 120 / 117 40% 1 03.05.2028 -
Olivier Leroux Mouscron Aktiv 98 / 113 40% 1 06.03.2028 -
Emil Ceïde Bodo/Glimt Aktiv 123 / 124 66% 1 14.02.2028 Befürworten
Ruben Ramos LA Galaxy Aktiv 99 / 110 40% 4 12.02.2028 -
Romelle Donovan Brentford Aktiv 122 / 130 40% 2 12.02.2028 -
Luca Meirelles Kudrivka Aktiv 123 / 121 40% 2 12.02.2028 -
Zane Albarus Shrewsbury Town Aktiv 103 / 99 40% 4 11.02.2028 -
Eli Junior Kroupi Bournemouth Aktiv 142 / 145 40% 2 09.02.2028 -
Ibrahim Fullah Charlton Athletic Aktiv 120 / 138 40% 1 09.02.2028 -
Peter Amidu Acquah Asante Kotoko Aktiv 95 / 103 40% 1 09.02.2028 -
Esquerdinha Notts County Aktiv 113 / 134 40% 3 08.02.2028 -
Babis Kostoulas Oxford United Aktiv 137 / 155 40% 4 08.02.2028 -
Xavier Jodamus Jomo Cosmos Aktiv 82 / 90 40% 1 08.02.2028 -
Igor Tyjon Barrow AFC Aktiv 111 / 121 40% 2 05.02.2028 -
Fletcher Boyd Accrington Stanley Aktiv 107 / 107 40% 1 05.02.2028 -
Mateus Mané Burnley Aktiv 137 / 149 40% 4 04.02.2028 -
Ryan McAidoo Oldham Athletic Aktiv 119 / 127 40% 3 02.02.2028 -
Ryan Kavuma-McQueen Accrington Stanley Aktiv 125 / 134 40% 5 02.02.2028 -
Alex Verón Vélez Aktiv 122 / 129 40% 4 01.02.2028 -
Alwande Booysen SuperSport United Aktiv 89 / 100 40% 3 30.01.2028 -
Oscar Schwartau Norwich City Aktiv 129 / 130 40% 1 30.01.2028 -
Omar Khedr Gillingham Aktiv 103 / 125 40% 2 29.01.2028 -
Francisco Triver River Plate Aktiv 94 / 98 40% 1 29.01.2028 -
Lwanda Mbanjwa Platinum Stars Aktiv 99 / 108 40% 1 27.01.2028 -
Gabe Forsyth Colchester United Aktiv 102 / 110 40% 3 24.01.2028 -
Amin Nabizada Exeter City Aktiv 104 / 115 40% 1 24.01.2028 -
Luke Brooke-Smith Chesterfield Aktiv 95 / 100 40% 1 22.01.2028 -
Josh Acheampong Everton Aktiv 141 / 145 40% 5 21.01.2028 -
Valentino Acuña Newell's Old Boys Aktiv 120 / 126 40% 1 21.01.2028 -
Ben Broggio Mansfield Town Aktiv 107 / 118 40% 3 20.01.2028 -
Rio Ngumoha Plymouth Argyle Aktiv 139 / 141 40% 3 18.01.2028 -
Jake Evans Crewe Alexandra Aktiv 113 / 127 40% 2 17.01.2028 -
Nicolás Barros Schelotto Gimnasia La Plata Aktiv 116 / 126 40% 1 17.01.2028 -
Gomolemo Kekana Maritzburg United Aktiv 111 / 121 40% 1 17.01.2028 -
Luca Williams-Barnett Walsall Aktiv 123 / 134 40% 2 16.01.2028 -
Leo Pecover Swindon Town Aktiv 95 / 113 40% 1 16.01.2028 -
Lewis Orford Crewe Alexandra Aktiv 114 / 124 40% 2 14.01.2028 -
Sindre Walle Egeli Udinese Aktiv 136 / 145 40% 3 13.01.2028 -
Nana Nuhu WAFA Aktiv 97 / 97 40% 1 12.01.2028 -
Archie Gray Southampton Aktiv 147 / 153 40% 3 08.01.2028 -
Jayden Danns Bradford City Aktiv 141 / 146 40% 2 08.01.2028 -
Rafael Moreno Atletico Venezuela Aktiv 111 / 108 40% 2 07.01.2028 -
Siyabonga Mabena Bidvest Wits Aktiv 119 / 124 40% 1 14.12.2027 -
Musa Malik Ikorodu City Aktiv 86 / 100 40% 1 11.12.2027 -
David Eke Enyimba Aktiv 90 / 97 40% 1 11.12.2027 -
Nupe Godstime Bayelsa United Aktiv 88 / 96 40% 1 10.12.2027 -
Victor Hernandez Santa Fe Aktiv 124 / 118 40% 5 09.12.2027 -
Abdulrahman Hamisu Niger Tornadoes Aktiv 87 / 92 40% 1 09.12.2027 -
Shea Lacey Crystal Palace Aktiv 128 / 134 40% 1 08.12.2027 -
Caleb Yirenkyi Coventry City Aktiv 142 / 144 40% 4 07.12.2027 -
Matias Siltanen Malmo FF Aktiv 128 / 122 40% 2 07.12.2027 -
Chimobi Igwilo Rangers International Aktiv 89 / 99 40% 1 06.12.2027 -
Edvard Pettersen Sandefjord Aktiv 114 / 118 40% 1 30.10.2027 -
David Damboama El-Kanemi Warriors Aktiv 84 / 92 40% 2 27.10.2027 -
Esteban de Lima Tacuarembo Aktiv 101 / 92 40% 2 19.10.2027 -
Olaniyi Saheed Kwara United Aktiv 97 / 102 40% 1 19.10.2027 -
Matthew Litherland Harrogate Town Aktiv 113 / 119 40% 4 18.10.2027 -
Godwin Oham Warri Wolves Aktiv 85 / 92 40% 1 16.10.2027 -
Lucas Bergvall Tottenham Aktiv 152 / 158 40% 2 14.10.2027 -
Adrian Skogmar Malmo FF Aktiv 118 / 128 40% 1 12.10.2027 -
Mohamed Moussa Koïta Mathare United Aktiv 90 / 103 40% 1 06.10.2027 -
Malick Yalcouyé Brighton Aktiv 128 / 137 40% 1 06.10.2027 -
Jonathan Bland Barnsley Aktiv 110 / 123 40% 1 17.09.2027 -
Mbekezeli Mbokazi Chicago Fire Aktiv 127 / 131 40% 1 09.09.2027 -
Issa Yusuf Shooting Stars Aktiv 89 / 90 40% 2 08.09.2027 -
Lucan Louw US Bougouni Aktiv 83 / 92 40% 1 08.09.2027 -
Johannes Eggestein Orlando City Aktiv 125 / 125 68% 1 08.07.2027 Befürworten
Ramadan Ashour Sporting Cristal Aktiv 120 / 120 67% 1 08.07.2027 Befürworten
Gady Beyuku Blackburn Rovers Aktiv 116 / 118 40% 1 05.07.2027 -
Charlie Gray Fleetwood Town Aktiv 99 / 105 40% 1 05.07.2027 -
Antonio Galeano Remo Stars Aktiv 122 / 122 40% 1 01.08.2026 -
Hakeem Odoffin Luton Town Aktiv 119 / 112 40% 1 01.08.2026 -